Tasman — ZDKI2 — position and weather

sailwx.info

Track history (hours):
 
Tides and Currents Weather Stations Pressure Air Temp Water Temp Dewpoint Dewpoint Depression Visibility Wind Speed Wind Dir Waves Ship Positions

Tasman

Last reported at 2016-Aug-24 21:33 UTC. Time now 2016-Aug-25 13:11 UTC.
Position N 58°43' W 002°55'.

Length 90 m; draft 4 m.

Type: Ship. MMSI: 23617000.

Date/timePositionNaut miles runAvg speedWind from/ knotsBaromVisibWave heightAir tempDewpointWater temp
2016-Aug-24 21:33N 58°43' W 002°55'8 8.4
2016-Aug-24 20:33N 58°43' W 003°11'9 8.9
2016-Aug-24 19:33N 58°42' W 003°28'10 9.6
2016-Aug-24 18:33N 58°41' W 003°47'1110.9
2016-Aug-24 17:33N 58°40' W 004°07'1110.7
2016-Aug-24 16:32N 58°40' W 004°29'17811.1
2016-Aug-24 00:34N 56°04' W 007°10'1211.6
2016-Aug-23 23:34N 55°53' W 007°06'1111.0
2016-Aug-23 22:34N 55°42' W 007°02'2712.0
2016-Aug-23 20:17N 55°15' W 006°54'  
2016-Aug-20 10:21N 55°11' W 007°02'6 6.9
2016-Aug-20 09:29N 55°14' W 006°53'2 1.7
2016-Aug-20 08:32N 55°15' W 006°50'1 0.8
2016-Aug-20 07:33N 55°15' W 006°49'4 4.4
2016-Aug-20 06:33N 55°15' W 006°41'5 5.5
2016-Aug-20 05:33N 55°16' W 006°32'9 8.7
2016-Aug-20 04:33N 55°16' W 006°17'1211.7
2016-Aug-20 03:33N 55°09' W 005°59'2014.1
2016-Aug-20 02:07N 54°52' W 005°42'712.7
2016-Aug-20 01:33N 54°46' W 005°34'1313.3
2016-Aug-20 00:33N 54°34' W 005°24'1111.4
2016-Aug-19 23:34N 54°23' W 005°20'1111.0
2016-Aug-19 22:33N 54°12' W 005°22'1111.2
2016-Aug-19 21:33N 54°01' W 005°24'18710.9
2016-Aug-19 04:26N 50°54' W 005°49'1213.3
2016-Aug-19 03:32N 50°43' W 005°51'1713.7
2016-Aug-19 02:17N 50°26' W 005°52'2414.0
2016-Aug-19 00:32N 50°01' W 005°54'1812.7
2016-Aug-18 23:04N 49°43' W 005°56'3212.0
2016-Aug-18 20:27N 49°11' W 005°57'1711.8
2016-Aug-18 19:03N 48°55' W 005°60'611.9
2016-Aug-18 18:31N 48°48' W 006°01'12512.1
2016-Aug-18 08:12N 46°50' W 005°02'224 4.8
2016-Aug-16 09:33N 43°21' W 003°04'0 0.0
2016-Aug-16 07:20N 43°21' W 003°04'0 0.0
2016-Aug-16 06:11N 43°21' W 003°04'0 0.0
2016-Aug-15 04:33N 43°21' W 003°04'  
Track history (hours):
 
Tides and Currents Weather Stations Pressure Air Temp Water Temp Dewpoint Dewpoint Depression Visibility Wind Speed Wind Dir Waves Ship Positions

Tasman

Last reported at 2016-Aug-24 21:33 UTC. Time now 2016-Aug-25 13:11 UTC.
Position N 58°43' W 002°55'.

Length 90 m; draft 4 m.

Type: Ship. MMSI: 23617000.

Date/timePositionNaut miles runAvg speedWind from/ knotsBaromVisibWave heightAir tempDewpointWater temp
2016-Aug-24 21:33N 58°43' W 002°55'8 8.4
2016-Aug-24 20:33N 58°43' W 003°11'9 8.9
2016-Aug-24 19:33N 58°42' W 003°28'10 9.6
2016-Aug-24 18:33N 58°41' W 003°47'1110.9
2016-Aug-24 17:33N 58°40' W 004°07'1110.7
2016-Aug-24 16:32N 58°40' W 004°29'17811.1
2016-Aug-24 00:34N 56°04' W 007°10'1211.6
2016-Aug-23 23:34N 55°53' W 007°06'1111.0
2016-Aug-23 22:34N 55°42' W 007°02'2712.0
2016-Aug-23 20:17N 55°15' W 006°54'  
2016-Aug-20 10:21N 55°11' W 007°02'6 6.9
2016-Aug-20 09:29N 55°14' W 006°53'2 1.7
2016-Aug-20 08:32N 55°15' W 006°50'1 0.8
2016-Aug-20 07:33N 55°15' W 006°49'4 4.4
2016-Aug-20 06:33N 55°15' W 006°41'5 5.5
2016-Aug-20 05:33N 55°16' W 006°32'9 8.7
2016-Aug-20 04:33N 55°16' W 006°17'1211.7
2016-Aug-20 03:33N 55°09' W 005°59'2014.1
2016-Aug-20 02:07N 54°52' W 005°42'712.7
2016-Aug-20 01:33N 54°46' W 005°34'1313.3
2016-Aug-20 00:33N 54°34' W 005°24'1111.4
2016-Aug-19 23:34N 54°23' W 005°20'1111.0
2016-Aug-19 22:33N 54°12' W 005°22'1111.2
2016-Aug-19 21:33N 54°01' W 005°24'18710.9
2016-Aug-19 04:26N 50°54' W 005°49'1213.3
2016-Aug-19 03:32N 50°43' W 005°51'1713.7
2016-Aug-19 02:17N 50°26' W 005°52'2414.0
2016-Aug-19 00:32N 50°01' W 005°54'1812.7
2016-Aug-18 23:04N 49°43' W 005°56'3212.0
2016-Aug-18 20:27N 49°11' W 005°57'1711.8
2016-Aug-18 19:03N 48°55' W 005°60'611.9
2016-Aug-18 18:31N 48°48' W 006°01'12512.1
2016-Aug-18 08:12N 46°50' W 005°02'224 4.8
2016-Aug-16 09:33N 43°21' W 003°04'0 0.0
2016-Aug-16 07:20N 43°21' W 003°04'0 0.0
2016-Aug-16 06:11N 43°21' W 003°04'0 0.0
2016-Aug-15 04:33N 43°21' W 003°04'  

Dump ship's entire track history